sensor_id;sensor_type;location;lat;lon;timestamp;temperature;humidity
14301;DHT22;7234;59.306;18.024;2024-03-08T21:30:40;1.40;99.90
14301;DHT22;7234;59.306;18.024;2024-03-08T21:33:07;1.20;99.90
14301;DHT22;7234;59.306;18.024;2024-03-08T21:35:36;1.20;99.90
14301;DHT22;7234;59.306;18.024;2024-03-08T21:38:06;1.20;99.90
14301;DHT22;7234;59.306;18.024;2024-03-08T21:40:33;1.30;99.90
14301;DHT22;7234;59.306;18.024;2024-03-08T21:43:05;1.30;99.90
14301;DHT22;7234;59.306;18.024;2024-03-08T21:45:32;1.40;99.90
14301;DHT22;7234;59.306;18.024;2024-03-08T21:48:04;1.40;99.90
14301;DHT22;7234;59.306;18.024;2024-03-08T21:50:31;1.40;99.90
14301;DHT22;7234;59.306;18.024;2024-03-08T21:52:58;1.40;99.90
14301;DHT22;7234;59.306;18.024;2024-03-08T21:55:26;1.50;99.90
14301;DHT22;7234;59.306;18.024;2024-03-08T21:57:55;1.50;99.90
14301;DHT22;7234;59.306;18.024;2024-03-08T22:00:24;1.40;99.90
14301;DHT22;7234;59.306;18.024;2024-03-08T22:02:51;1.40;99.90
14301;DHT22;7234;59.306;18.024;2024-03-08T22:05:19;1.40;99.90
14301;DHT22;7234;59.306;18.024;2024-03-08T22:07:50;1.30;99.90
14301;DHT22;7234;59.306;18.024;2024-03-08T22:10:18;1.30;99.90
14301;DHT22;7234;59.306;18.024;2024-03-08T22:12:47;1.20;99.90
14301;DHT22;7234;59.306;18.024;2024-03-08T22:15:14;1.20;99.90
14301;DHT22;7234;59.306;18.024;2024-03-08T22:17:42;1.10;99.90
14301;DHT22;7234;59.306;18.024;2024-03-08T22:20:10;1.00;99.90
14301;DHT22;7234;59.306;18.024;2024-03-08T22:22:49;0.90;99.90
14301;DHT22;7234;59.306;18.024;2024-03-08T22:25:17;0.90;99.90
14301;DHT22;7234;59.306;18.024;2024-03-08T22:27:45;1.00;99.90
14301;DHT22;7234;59.306;18.024;2024-03-08T22:30:17;0.90;99.90
14301;DHT22;7234;59.306;18.024;2024-03-08T22:32:45;0.90;99.90
14301;DHT22;7234;59.306;18.024;2024-03-08T22:35:12;0.90;99.90
14301;DHT22;7234;59.306;18.024;2024-03-08T22:37:39;0.70;99.90
14301;DHT22;7234;59.306;18.024;2024-03-08T22:40:09;0.80;99.90
14301;DHT22;7234;59.306;18.024;2024-03-08T22:42:37;0.80;99.90
14301;DHT22;7234;59.306;18.024;2024-03-08T22:45:06;0.90;99.90
14301;DHT22;7234;59.306;18.024;2024-03-08T22:47:36;0.90;99.90
14301;DHT22;7234;59.306;18.024;2024-03-08T22:50:05;0.90;99.90
14301;DHT22;7234;59.306;18.024;2024-03-08T22:52:33;0.90;99.90
14301;DHT22;7234;59.306;18.024;2024-03-08T22:55:04;0.90;99.90
14301;DHT22;7234;59.306;18.024;2024-03-08T22:57:36;0.80;99.90
14301;DHT22;7234;59.306;18.024;2024-03-08T23:00:06;0.60;99.90
14301;DHT22;7234;59.306;18.024;2024-03-08T23:02:55;0.70;99.90
14301;DHT22;7234;59.306;18.024;2024-03-08T23:05:23;0.60;99.90
14301;DHT22;7234;59.306;18.024;2024-03-08T23:07:53;0.60;99.90
14301;DHT22;7234;59.306;18.024;2024-03-08T23:10:20;0.50;99.90
14301;DHT22;7234;59.306;18.024;2024-03-08T23:12:51;0.50;99.90
14301;DHT22;7234;59.306;18.024;2024-03-08T23:15:18;0.50;99.90
14301;DHT22;7234;59.306;18.024;2024-03-08T23:17:49;0.60;99.90
14301;DHT22;7234;59.306;18.024;2024-03-08T23:20:21;0.60;99.90
14301;DHT22;7234;59.306;18.024;2024-03-08T23:22:57;0.70;99.90
14301;DHT22;7234;59.306;18.024;2024-03-08T23:25:29;0.70;99.90
14301;DHT22;7234;59.306;18.024;2024-03-08T23:27:58;0.70;99.90
14301;DHT22;7234;59.306;18.024;2024-03-08T23:30:27;0.80;99.90
14301;DHT22;7234;59.306;18.024;2024-03-08T23:32:55;0.80;99.90
14301;DHT22;7234;59.306;18.024;2024-03-08T23:35:23;0.80;99.90
14301;DHT22;7234;59.306;18.024;2024-03-08T23:37:53;0.80;99.90
14301;DHT22;7234;59.306;18.024;2024-03-08T23:40:20;0.80;99.90
14301;DHT22;7234;59.306;18.024;2024-03-08T23:42:49;0.70;99.90
14301;DHT22;7234;59.306;18.024;2024-03-08T23:45:19;0.70;99.90
14301;DHT22;7234;59.306;18.024;2024-03-08T23:47:50;0.70;99.90
14301;DHT22;7234;59.306;18.024;2024-03-08T23:50:19;0.70;99.90
14301;DHT22;7234;59.306;18.024;2024-03-08T23:52:48;0.70;99.90
14301;DHT22;7234;59.306;18.024;2024-03-08T23:55:16;0.70;99.90
14301;DHT22;7234;59.306;18.024;2024-03-08T23:57:49;0.70;99.90
